createdAt,value
2023-04-09T00:01:52.041Z,8.20
2023-04-09T00:04:53.691Z,8.70
2023-04-09T00:07:55.478Z,8.27
2023-04-09T00:10:58.272Z,7.73
2023-04-09T00:13:59.855Z,7.50
2023-04-09T00:17:01.472Z,7.63
2023-04-09T00:20:04.073Z,8.30
2023-04-09T00:23:06.005Z,7.87
2023-04-09T00:26:07.818Z,9.07
2023-04-09T00:29:09.416Z,7.50
2023-04-09T00:32:11.097Z,8.10
2023-04-09T00:35:12.704Z,8.00
2023-04-09T00:38:14.381Z,7.83
2023-04-09T00:41:18.066Z,8.23
2023-04-09T00:44:19.617Z,9.20
2023-04-09T00:47:21.324Z,8.70
2023-04-09T00:50:23.130Z,8.00
2023-04-09T00:53:26.159Z,8.03
2023-04-09T00:56:29.738Z,8.40
2023-04-09T00:59:32.404Z,8.10
2023-04-09T01:02:34.557Z,9.10
2023-04-09T01:06:19.387Z,8.43
2023-04-09T01:09:23.912Z,9.17
2023-04-09T01:12:54.793Z,10.23
2023-04-09T01:15:59.242Z,9.37
2023-04-09T01:19:09.627Z,8.53
2023-04-09T01:22:30.992Z,9.17
2023-04-09T01:25:48.218Z,11.37
2023-04-09T01:28:54.170Z,9.20
2023-04-09T01:31:56.227Z,9.13
2023-04-09T01:34:58.366Z,9.37
2023-04-09T01:38:01.279Z,8.83
2023-04-09T01:41:05.211Z,10.20
2023-04-09T01:44:08.802Z,9.03
2023-04-09T01:47:11.163Z,9.60
2023-04-09T01:50:12.943Z,9.53
2023-04-09T01:53:14.839Z,9.40
2023-04-09T01:56:16.406Z,8.83
2023-04-09T01:59:18.031Z,9.03
2023-04-09T02:02:28.435Z,9.23
2023-04-09T02:05:36.201Z,8.83
2023-04-09T02:08:37.868Z,10.00
2023-04-09T02:11:42.222Z,9.53
2023-04-09T02:14:46.598Z,9.23
2023-04-09T02:17:48.347Z,9.73
2023-04-09T02:20:50.513Z,9.23
2023-04-09T02:23:52.363Z,9.30
2023-04-09T02:26:53.926Z,9.70
2023-04-09T02:29:55.741Z,8.60
2023-04-09T02:32:57.321Z,9.57
2023-04-09T02:35:58.947Z,8.57
2023-04-09T02:39:00.504Z,9.80
2023-04-09T02:42:02.184Z,10.10
2023-04-09T02:45:03.959Z,9.77
2023-04-09T02:48:05.844Z,9.10
2023-04-09T02:51:08.193Z,9.40
2023-04-09T02:54:09.968Z,9.47
2023-04-09T02:57:11.545Z,8.90
2023-04-09T03:00:13.501Z,9.43
2023-04-09T03:03:15.390Z,10.27
2023-04-09T03:06:18.350Z,9.87
2023-04-09T03:09:20.005Z,9.70
2023-04-09T03:12:21.580Z,9.47
2023-04-09T03:15:23.195Z,9.17
2023-04-09T03:18:24.839Z,9.73
2023-04-09T03:21:27.344Z,9.60
2023-04-09T03:24:28.912Z,9.30
2023-04-09T03:27:31.961Z,9.07
2023-04-09T03:30:33.523Z,11.03
2023-04-09T03:33:35.232Z,10.20
2023-04-09T03:36:36.795Z,9.93
2023-04-09T03:39:38.463Z,9.63
2023-04-09T03:42:41.994Z,9.60
2023-04-09T03:45:43.653Z,9.43
2023-04-09T03:48:45.809Z,9.60
2023-04-09T03:51:47.473Z,10.23
2023-04-09T03:54:49.026Z,10.73
2023-04-09T03:57:50.582Z,9.00
2023-04-09T04:00:52.232Z,9.73
2023-04-09T04:03:53.887Z,10.43
2023-04-09T04:06:55.774Z,10.43
2023-04-09T04:09:57.391Z,12.07
2023-04-09T04:12:58.923Z,10.63
2023-04-09T04:16:00.728Z,11.20
2023-04-09T04:19:02.335Z,10.37
2023-04-09T04:22:03.900Z,10.77
2023-04-09T04:25:05.854Z,10.93
2023-04-09T04:28:07.728Z,11.17
2023-04-09T04:31:13.365Z,10.90
2023-04-09T04:34:15.167Z,10.50
2023-04-09T04:37:16.948Z,11.30
2023-04-09T04:40:18.516Z,10.83
2023-04-09T04:43:20.124Z,10.43
2023-04-09T04:46:21.721Z,9.60
2023-04-09T04:49:23.449Z,10.57
2023-04-09T04:52:25.028Z,12.27
2023-04-09T04:55:26.610Z,11.60
2023-04-09T04:58:28.195Z,11.67
2023-04-09T05:01:29.748Z,10.60
2023-04-09T05:04:31.660Z,11.67
2023-04-09T05:07:33.946Z,11.30
2023-04-09T05:10:35.517Z,12.30
2023-04-09T05:13:37.041Z,13.00
2023-04-09T05:16:38.770Z,13.00
2023-04-09T05:19:40.466Z,13.47
2023-04-09T05:22:42.042Z,12.93
2023-04-09T05:25:43.813Z,12.83
2023-04-09T05:28:45.442Z,12.13
2023-04-09T05:31:47.030Z,11.90
2023-04-09T05:34:48.655Z,12.67
2023-04-09T05:37:50.203Z,12.20
2023-04-09T05:40:51.754Z,11.03
2023-04-09T05:43:53.574Z,11.80
2023-04-09T05:46:55.490Z,11.50
2023-04-09T05:49:57.066Z,11.40
2023-04-09T05:52:58.662Z,12.20
2023-04-09T05:56:00.368Z,12.57
2023-04-09T05:59:02.032Z,12.53
2023-04-09T06:02:03.713Z,11.87
2023-04-09T06:05:05.676Z,10.70
2023-04-09T06:08:07.323Z,11.03
2023-04-09T06:11:10.346Z,11.83
2023-04-09T06:14:17.921Z,12.77
2023-04-09T06:17:19.500Z,12.50
2023-04-09T06:20:21.370Z,11.23
2023-04-09T06:23:22.949Z,12.67
2023-04-09T06:26:24.540Z,12.40
2023-04-09T06:29:26.136Z,14.10
2023-04-09T06:32:27.824Z,11.53
2023-04-09T06:35:29.508Z,11.83
2023-04-09T06:38:31.090Z,11.17
2023-04-09T06:41:33.007Z,11.20
2023-04-09T06:44:35.893Z,11.50
2023-04-09T06:47:37.565Z,10.60
2023-04-09T06:50:39.255Z,10.83
2023-04-09T06:53:41.048Z,11.10
2023-04-09T06:56:42.700Z,11.53
2023-04-09T06:59:44.442Z,11.90
2023-04-09T07:02:46.302Z,11.60
2023-04-09T07:05:48.590Z,12.00
2023-04-09T07:08:50.616Z,12.47
2023-04-09T07:11:52.408Z,11.90
2023-04-09T07:14:56.859Z,11.00
2023-04-09T07:17:58.703Z,12.90
2023-04-09T07:21:00.464Z,12.80
2023-04-09T07:24:02.094Z,13.37
2023-04-09T07:27:04.173Z,15.93
2023-04-09T07:30:06.428Z,12.23
2023-04-09T07:33:08.030Z,13.10
2023-04-09T07:36:09.731Z,13.70
2023-04-09T07:39:11.464Z,14.43
2023-04-09T07:42:13.482Z,13.87
2023-04-09T07:45:15.221Z,13.87
2023-04-09T07:48:17.324Z,14.57
2023-04-09T07:51:19.290Z,12.67
2023-04-09T07:54:23.653Z,13.37
2023-04-09T07:57:25.294Z,14.33
2023-04-09T08:00:26.866Z,14.17
2023-04-09T08:03:28.688Z,13.37
2023-04-09T08:06:30.984Z,14.03
2023-04-09T08:09:32.774Z,14.13
2023-04-09T08:12:34.333Z,15.43
2023-04-09T08:15:36.113Z,15.13
2023-04-09T08:18:37.707Z,14.13
2023-04-09T08:21:42.935Z,14.40
2023-04-09T08:24:44.542Z,15.27
2023-04-09T08:27:46.388Z,13.63
2023-04-09T08:30:48.322Z,14.70
2023-04-09T08:33:50.543Z,15.47
2023-04-09T08:36:52.156Z,13.80
2023-04-09T08:39:53.815Z,15.00
2023-04-09T08:42:56.796Z,15.00
2023-04-09T08:45:59.503Z,13.60
2023-04-09T08:49:01.828Z,12.83
2023-04-09T08:52:03.685Z,13.03
2023-04-09T08:55:06.054Z,14.27
2023-04-09T08:58:07.789Z,12.60
2023-04-09T09:01:20.019Z,12.90
2023-04-09T09:04:21.711Z,13.90
2023-04-09T09:07:23.345Z,13.53
2023-04-09T09:10:44.433Z,13.03
2023-04-09T09:13:46.258Z,12.77
2023-04-09T09:17:08.160Z,14.40
2023-04-09T09:20:20.706Z,13.80
2023-04-09T09:23:36.462Z,12.43
2023-04-09T09:26:38.584Z,12.07
2023-04-09T09:29:42.934Z,11.00
2023-04-09T09:32:44.743Z,12.57
2023-04-09T09:35:49.128Z,13.47
2023-04-09T09:38:56.060Z,13.37
2023-04-09T09:42:07.987Z,13.43
2023-04-09T09:45:19.468Z,13.10
2023-04-09T09:48:21.059Z,14.03
2023-04-09T09:51:27.220Z,14.00
2023-04-09T09:54:38.032Z,12.77
2023-04-09T09:57:43.238Z,12.57
2023-04-09T10:00:48.375Z,10.90
2023-04-09T10:03:51.594Z,12.20
2023-04-09T10:06:53.924Z,10.67
2023-04-09T10:09:58.252Z,10.10
2023-04-09T10:13:00.609Z,9.90
2023-04-09T10:16:02.667Z,9.47
2023-04-09T10:19:04.850Z,8.43
2023-04-09T10:22:15.975Z,8.73
2023-04-09T10:25:17.945Z,9.10
2023-04-09T10:28:19.596Z,8.90
2023-04-09T10:31:21.622Z,10.40
2023-04-09T10:34:28.556Z,12.57
2023-04-09T10:37:30.249Z,12.77
2023-04-09T10:40:31.982Z,11.63
2023-04-09T10:43:36.330Z,11.90
2023-04-09T10:46:37.956Z,11.47
2023-04-09T10:49:41.629Z,11.83
2023-04-09T10:52:44.262Z,11.30
2023-04-09T10:55:52.548Z,12.27
2023-04-09T10:58:54.338Z,10.30
2023-04-09T11:01:56.090Z,9.30
2023-04-09T11:05:18.027Z,7.77
2023-04-09T11:08:19.764Z,9.60
2023-04-09T11:11:26.594Z,11.00
2023-04-09T11:14:28.158Z,10.23
2023-04-09T11:17:29.746Z,10.53
2023-04-09T11:20:34.084Z,11.17
2023-04-09T11:23:35.872Z,8.73
2023-04-09T11:26:37.630Z,7.93
2023-04-09T11:29:39.283Z,10.10
2023-04-09T11:32:41.209Z,10.20
2023-04-09T11:35:43.983Z,8.83
2023-04-09T11:38:49.993Z,8.40
2023-04-09T11:41:52.042Z,8.20
2023-04-09T11:44:54.058Z,7.90
2023-04-09T11:47:56.370Z,9.17
2023-04-09T11:50:58.303Z,8.30
2023-04-09T11:54:03.591Z,8.10
2023-04-09T11:57:05.420Z,7.40
2023-04-09T12:00:14.925Z,8.00
2023-04-09T12:03:17.020Z,8.40
2023-04-09T12:06:21.666Z,8.87
2023-04-09T12:09:23.252Z,8.20
2023-04-09T12:12:24.872Z,8.73
2023-04-09T12:15:27.066Z,8.13
2023-04-09T12:18:28.936Z,7.63
2023-04-09T12:21:53.115Z,7.90
2023-04-09T12:24:55.424Z,7.10
2023-04-09T12:27:57.868Z,8.93
2023-04-09T12:30:59.747Z,7.87
2023-04-09T12:34:01.577Z,6.97
2023-04-09T12:37:03.211Z,8.33
2023-04-09T12:40:05.454Z,7.33
2023-04-09T12:43:07.067Z,7.03
2023-04-09T12:46:08.816Z,7.90
2023-04-09T12:49:10.551Z,8.50
2023-04-09T12:52:12.827Z,8.43
2023-04-09T12:55:16.098Z,7.87
2023-04-09T12:58:17.723Z,6.97
2023-04-09T13:01:19.359Z,8.00
2023-04-09T13:04:21.002Z,8.63
2023-04-09T13:07:22.771Z,7.83
2023-04-09T13:10:25.255Z,7.77
2023-04-09T13:13:26.836Z,7.93
2023-04-09T13:16:28.534Z,8.10
2023-04-09T13:19:30.230Z,8.10
2023-04-09T13:22:31.877Z,7.20
2023-04-09T13:25:33.468Z,6.73
2023-04-09T13:28:37.827Z,7.23
2023-04-09T13:31:39.703Z,7.40
2023-04-09T13:34:41.627Z,7.80
2023-04-09T13:37:43.262Z,7.20
2023-04-09T13:40:44.845Z,7.07
2023-04-09T13:43:46.389Z,7.10
2023-04-09T13:46:48.046Z,7.10
2023-04-09T13:49:51.575Z,6.63
2023-04-09T13:52:53.230Z,7.33
2023-04-09T13:55:54.816Z,7.23
2023-04-09T13:58:56.481Z,6.23
2023-04-09T14:01:58.371Z,6.60
2023-04-09T14:05:00.188Z,6.30
2023-04-09T14:08:05.890Z,6.43
2023-04-09T14:11:07.701Z,6.73
2023-04-09T14:14:09.365Z,6.70
2023-04-09T14:17:11.089Z,6.43
2023-04-09T14:20:12.786Z,7.60
2023-04-09T14:23:14.368Z,6.70
2023-04-09T14:26:20.334Z,7.30
2023-04-09T14:29:22.964Z,6.53
2023-04-09T14:32:24.779Z,6.00
2023-04-09T14:35:26.651Z,6.87
2023-04-09T14:38:28.313Z,7.03
2023-04-09T14:41:29.888Z,6.57
2023-04-09T14:44:31.656Z,6.43
2023-04-09T14:47:33.432Z,6.53
2023-04-09T14:50:36.538Z,6.33
2023-04-09T14:53:38.460Z,6.50
2023-04-09T14:56:40.462Z,6.23
2023-04-09T14:59:42.046Z,6.47
2023-04-09T15:02:44.154Z,6.57
2023-04-09T15:05:46.051Z,7.27
2023-04-09T15:08:47.672Z,7.00
2023-04-09T15:11:49.342Z,6.50
2023-04-09T15:14:51.116Z,7.03
2023-04-09T15:17:52.727Z,6.33
2023-04-09T15:20:54.390Z,6.07
2023-04-09T15:23:58.729Z,6.00
2023-04-09T15:27:01.654Z,6.17
2023-04-09T15:30:03.662Z,6.30
2023-04-09T15:33:06.156Z,5.67
2023-04-09T15:36:08.297Z,6.03
2023-04-09T15:39:09.922Z,6.57
2023-04-09T15:42:13.451Z,6.70
2023-04-09T15:45:16.579Z,5.73
2023-04-09T15:48:19.518Z,7.20
2023-04-09T15:51:21.309Z,6.57
2023-04-09T15:54:22.978Z,6.40
2023-04-09T15:57:24.619Z,6.40
2023-04-09T16:00:27.596Z,6.00
2023-04-09T16:03:29.267Z,6.20
2023-04-09T16:06:30.892Z,5.30
2023-04-09T16:09:32.490Z,6.47
2023-04-09T16:12:34.103Z,8.70
2023-04-09T16:15:35.911Z,6.50
2023-04-09T16:18:37.674Z,6.00
2023-04-09T16:21:43.751Z,6.37
2023-04-09T16:24:45.628Z,6.23
2023-04-09T16:27:47.324Z,5.87
2023-04-09T16:30:52.967Z,5.13
2023-04-09T16:33:54.730Z,4.83
2023-04-09T16:36:56.594Z,5.80
2023-04-09T16:39:58.711Z,5.43
2023-04-09T16:43:01.625Z,7.50
2023-04-09T16:46:06.375Z,5.20
2023-04-09T16:49:08.103Z,4.97
2023-04-09T16:52:09.706Z,5.53
2023-04-09T16:55:11.302Z,5.63
2023-04-09T16:58:12.897Z,5.17
2023-04-09T17:01:14.570Z,8.30
2023-04-09T17:04:16.305Z,4.83
2023-04-09T17:07:17.957Z,7.63
2023-04-09T17:10:19.912Z,5.40
2023-04-09T17:13:21.539Z,4.63
2023-04-09T17:16:23.220Z,5.00
2023-04-09T17:19:24.854Z,6.77
2023-04-09T17:22:26.408Z,7.77
2023-04-09T17:25:28.074Z,5.83
2023-04-09T17:28:29.661Z,5.13
2023-04-09T17:31:31.496Z,5.70
2023-04-09T17:34:33.066Z,5.30
2023-04-09T17:37:35.177Z,5.10
2023-04-09T17:40:36.788Z,6.20
2023-04-09T17:43:38.397Z,6.70
2023-04-09T17:46:40.048Z,6.80
2023-04-09T17:49:41.728Z,5.90
2023-04-09T17:52:43.419Z,7.60
2023-04-09T17:55:48.888Z,6.60
2023-04-09T17:58:50.705Z,5.90
2023-04-09T18:01:54.912Z,7.20
2023-04-09T18:04:58.997Z,7.20
2023-04-09T18:08:02.319Z,7.00
2023-04-09T18:11:12.645Z,7.07
2023-04-09T18:14:15.286Z,6.50
2023-04-09T18:17:17.312Z,8.40
2023-04-09T18:20:19.467Z,8.70
2023-04-09T18:23:21.048Z,8.07
2023-04-09T18:26:22.595Z,7.70
2023-04-09T18:29:24.297Z,9.40
2023-04-09T18:32:26.717Z,7.23
2023-04-09T18:35:28.448Z,7.30
2023-04-09T18:38:30.388Z,6.57
2023-04-09T18:41:31.983Z,7.23
2023-04-09T18:44:36.232Z,7.57
2023-04-09T18:47:37.858Z,7.07
2023-04-09T18:50:39.412Z,7.63
2023-04-09T18:53:41.664Z,7.57
2023-04-09T18:56:45.922Z,7.03
2023-04-09T18:59:48.115Z,7.90
2023-04-09T19:02:50.053Z,6.70
2023-04-09T19:05:52.161Z,7.60
2023-04-09T19:08:57.923Z,6.87
2023-04-09T19:11:59.594Z,6.47
2023-04-09T19:15:01.788Z,6.60
2023-04-09T19:18:03.531Z,6.70
2023-04-09T19:21:08.633Z,7.80
2023-04-09T19:24:10.280Z,7.30
2023-04-09T19:27:13.123Z,7.10
2023-04-09T19:30:14.730Z,7.57
2023-04-09T19:33:16.492Z,6.97
2023-04-09T19:36:18.089Z,6.67
2023-04-09T19:39:19.635Z,7.20
2023-04-09T19:42:21.442Z,8.10
2023-04-09T19:45:23.026Z,7.97
2023-04-09T19:48:24.918Z,7.43
2023-04-09T19:51:27.317Z,7.40
2023-04-09T19:54:28.880Z,8.47
2023-04-09T19:57:31.593Z,7.90
2023-04-09T20:00:34.081Z,13.67
2023-04-09T20:03:36.069Z,9.70
2023-04-09T20:06:37.697Z,9.57
2023-04-09T20:09:41.306Z,9.50
2023-04-09T20:12:46.621Z,10.70
2023-04-09T20:15:49.793Z,10.53
2023-04-09T20:18:51.755Z,11.00
2023-04-09T20:21:54.739Z,12.80
2023-04-09T20:24:56.571Z,13.50
2023-04-09T20:27:58.134Z,15.60
2023-04-09T20:31:05.103Z,15.17
2023-04-09T20:34:07.038Z,13.50
2023-04-09T20:37:08.736Z,12.33
2023-04-09T20:40:11.872Z,9.47
2023-04-09T20:43:13.534Z,10.17
2023-04-09T20:46:15.354Z,8.67
2023-04-09T20:49:17.088Z,8.30
2023-04-09T20:52:18.751Z,6.80
2023-04-09T20:55:20.464Z,6.87
2023-04-09T20:58:22.057Z,7.27
2023-04-09T21:01:24.465Z,7.17
2023-04-09T21:04:26.335Z,8.50
2023-04-09T21:07:27.985Z,7.10
2023-04-09T21:10:29.614Z,7.63
2023-04-09T21:13:40.425Z,7.67
2023-04-09T21:16:48.463Z,7.50
2023-04-09T21:19:51.467Z,8.77
2023-04-09T21:22:54.076Z,9.00
2023-04-09T21:25:55.681Z,10.43
2023-04-09T21:28:57.382Z,9.20
2023-04-09T21:31:59.073Z,8.77
2023-04-09T21:35:00.858Z,8.93
2023-04-09T21:38:03.025Z,7.70
2023-04-09T21:41:04.903Z,7.13
2023-04-09T21:44:08.455Z,6.47
2023-04-09T21:47:11.962Z,6.50
2023-04-09T21:50:13.743Z,6.30
2023-04-09T21:53:15.732Z,6.97
2023-04-09T21:56:17.308Z,6.60
2023-04-09T21:59:18.928Z,6.83
2023-04-09T22:02:20.819Z,8.07
2023-04-09T22:05:23.204Z,6.10
2023-04-09T22:08:25.360Z,6.57
2023-04-09T22:11:31.255Z,6.80
2023-04-09T22:14:32.940Z,6.20
2023-04-09T22:17:34.595Z,7.00
2023-04-09T22:20:36.668Z,7.00
2023-04-09T22:23:38.401Z,7.33
2023-04-09T22:26:42.526Z,7.30
2023-04-09T22:29:44.096Z,7.30
2023-04-09T22:32:45.725Z,7.63
2023-04-09T22:35:49.190Z,8.07
2023-04-09T22:38:51.776Z,7.03
2023-04-09T22:41:53.681Z,8.27
2023-04-09T22:44:55.249Z,7.00
2023-04-09T22:47:56.911Z,7.67
2023-04-09T22:50:58.916Z,7.47
2023-04-09T22:54:01.427Z,7.30
2023-04-09T22:57:03.122Z,7.40
2023-04-09T23:00:05.590Z,7.80
2023-04-09T23:03:07.446Z,7.73
2023-04-09T23:06:09.295Z,7.70
2023-04-09T23:09:10.975Z,7.20
2023-04-09T23:12:12.640Z,7.27
2023-04-09T23:15:14.292Z,7.33
2023-04-09T23:18:15.966Z,6.63
2023-04-09T23:21:17.540Z,7.70
2023-04-09T23:24:19.193Z,7.70
2023-04-09T23:27:20.820Z,7.40
2023-04-09T23:30:23.576Z,7.53
2023-04-09T23:33:25.355Z,8.10
2023-04-09T23:36:27.702Z,7.20
2023-04-09T23:39:29.325Z,7.20
2023-04-09T23:42:32.643Z,7.90
2023-04-09T23:45:34.214Z,7.27
2023-04-09T23:48:36.002Z,7.73
2023-04-09T23:51:37.627Z,8.07
2023-04-09T23:54:39.223Z,7.17
2023-04-09T23:57:42.433Z,7.03
